Latest Weather Observations for Karijini North

IDW60801

Issued at 7:03 pm WST Thursday 21 November 2019 (issued every 10 minutes, with the page automatically refreshed every 10 minutes)

About weather observations | Map of weather stations | Latest weather observations for WA | Other Formats
Station Details ID: 005098 Name: KARIJINI NORTH Lat: -22.30 Lon: 118.45 Height: 474.0 m
Data from the previous 72 hours. | See also: Recent months at Karijini North
Date/Time
WST
Temp
°C
App
Temp
°C
Dew
Point
°C
Rel
Hum
%
Delta-T
°C
Wind Press
QNH
hPa
Press
MSL
hPa
Rain since
9am
mm
Dir  Spd
km/h
Gust
km/h
Spd
kts
Gust
kts
21/07:00pm 35.1 31.1 -2.5 9 18.2 NNW 9 15 5 8 1011.8 - 0.0
21/06:30pm 36.3 31.2 -1.6 9 18.8 NNW 15 19 8 10 1011.4 - 0.0
21/06:00pm 37.1 31.5 -2.6 8 19.5 NNW 17 24 9 13 1011.1 - 0.0
21/05:30pm 37.4 33.0 -2.4 8 19.6 N 11 19 6 10 1011.0 - 0.0
21/05:00pm 37.7 31.6 -2.2 8 19.8 NNW 20 30 11 16 1010.8 - 0.0
21/04:30pm 38.2 32.4 -1.8 8 20.0 N 19 30 10 16 1010.6 - 0.0
21/04:00pm 38.4 32.7 -3.4 7 20.4 NW 17 26 9 14 1010.7 - 0.0
21/03:30pm 38.9 33.9 -1.3 8 20.3 NW 15 26 8 14 1010.6 - 0.0
21/03:00pm 38.1 32.2 -1.9 8 20.0 N 19 33 10 18 1010.8 - 0.0
21/02:30pm 39.3 33.3 -2.8 7 20.9 NW 19 28 10 15 1010.9 - 0.0
21/02:00pm 37.6 31.1 -2.2 8 19.7 N 22 37 12 20 1011.5 - 0.0
21/01:30pm 38.7 31.7 -3.2 7 20.6 NNW 24 39 13 21 1011.8 - 0.0
21/01:00pm 38.1 32.4 -3.7 7 20.3 N 17 30 9 16 1012.1 - 0.0
21/12:30pm 38.4 32.4 -3.4 7 20.4 N 19 30 10 16 1012.6 - 0.0
21/12:00pm 36.5 30.3 -3.0 8 19.2 NE 20 28 11 15 1013.0 - 0.0
21/11:30am 36.6 30.4 -3.0 8 19.2 ENE 20 30 11 16 1013.4 - 0.0
21/11:00am 36.1 29.1 -3.3 8 19.0 ENE 24 37 13 20 1013.9 - 0.0
21/10:30am 35.5 28.7 -2.2 9 18.4 ENE 24 41 13 22 1014.1 - 0.0
21/10:00am 34.9 27.2 -2.6 9 18.1 E 28 41 15 22 1014.2 - 0.0
21/09:40am 34.9 27.2 -2.6 9 18.1 E 28 46 15 25 1014.3 - 0.0
21/09:30am 33.9 26.5 -3.4 9 17.7 E 26 41 14 22 1014.4 - 0.0
21/09:00am 33.3 26.6 -3.8 9 17.4 E 22 35 12 19 1014.7 - 0.0
21/08:30am 31.9 24.1 -3.5 10 16.5 E 28 35 15 19 1014.9 - 0.0
21/08:00am 30.6 23.3 -3.2 11 15.7 E 26 35 14 19 1014.8 - 0.0
21/07:30am 30.5 24.3 -3.3 11 15.7 E 20 30 11 16 1014.7 - 0.0
21/07:00am 29.6 24.4 -2.8 12 15.0 ESE 15 24 8 13 1014.2 - 0.0
21/06:30am 28.6 22.9 -3.6 12 14.6 SE 17 26 9 14 1014.1 - 0.0
21/06:00am 28.0 23.5 -3.0 13 14.2 SSE 11 17 6 9 1013.6 - 0.0
21/05:30am 26.9 22.8 -2.8 14 13.5 SE 9 15 5 8 1013.2 - 0.0
21/05:00am 27.6 22.7 -3.3 13 14.0 SE 13 20 7 11 1012.7 - 0.0
21/04:30am 28.7 23.4 -3.5 12 14.7 SSE 15 22 8 12 1012.2 - 0.0
21/04:00am 27.1 23.6 -2.7 14 13.6 SW 6 15 3 8 1011.8 - 0.0
21/03:30am 28.0 23.5 -3.0 13 14.2 S 11 24 6 13 1011.4 - 0.0
21/03:00am 24.5 21.6 -1.3 18 11.8 SE 4 7 2 4 1011.3 - 0.0
21/02:30am 24.7 21.4 -1.2 18 11.9 SE 6 7 3 4 1011.1 - 0.0
21/02:00am 26.1 21.9 -0.8 17 12.6 W 11 13 6 7 1011.1 - 0.0
21/01:30am 26.1 22.3 -0.8 17 12.6 W 9 11 5 6 1011.1 - 0.0
21/01:00am 25.7 22.8 -1.2 17 12.5 NW 4 9 2 5 1011.2 - 0.0
21/12:30am 25.9 22.5 -1.8 16 12.7 W 6 9 3 5 1011.3 - 0.0
21/12:00am 28.2 25.6 -1.8 14 14.0 ESE 2 11 1 6 1011.5 - 0.0
 
Date/Time
WST
Temp
°C
App
Temp
°C
Dew
Point
°C
Rel
Hum
%
Delta-T
°C
Wind Press
QNH
hPa
Press
MSL
hPa
Rain since
9am
mm
Dir  Spd
km/h
Gust
km/h
Spd
kts
Gust
kts
20/11:30pm 31.1 26.4 -1.6 12 15.7 SSE 13 15 7 8 1011.7 - 0.0
20/11:00pm 32.1 27.4 -2.0 11 16.3 S 13 19 7 10 1011.9 - 0.0
20/10:30pm 32.3 28.0 -1.9 11 16.4 S 11 15 6 8 1012.0 - 0.0
20/10:00pm 33.6 28.1 -2.2 10 17.3 S 17 24 9 13 1011.9 - 0.0
20/09:30pm 33.8 27.7 -3.5 9 17.6 S 19 28 10 15 1011.7 - 0.0
20/09:00pm 34.1 28.5 -3.2 9 17.8 S 17 22 9 12 1011.4 - 0.0
20/08:30pm 33.9 29.2 -2.0 10 17.4 S 13 17 7 9 1011.2 - 0.0
20/08:00pm 33.8 29.9 3.6 15 16.0 SSW 13 19 7 10 1011.2 - 0.0
20/07:30pm 33.9 29.7 3.7 15 16.1 SW 15 20 8 11 1011.3 - 0.0
20/07:00pm 34.1 28.9 3.8 15 16.2 WSW 20 28 11 15 1011.1 - 0.0
20/06:30pm 34.6 29.2 2.2 13 16.9 W 20 37 11 20 1010.8 - 0.0
20/06:00pm 36.3 31.6 -1.6 9 18.8 SSW 13 19 7 10 1009.7 - 0.0
20/05:30pm 36.7 32.1 -1.3 9 19.0 S 13 19 7 10 1009.1 - 0.0
20/05:00pm 36.9 32.5 -2.7 8 19.4 SSE 11 19 6 10 1008.9 - 0.0
20/04:30pm 37.2 31.1 -2.5 8 19.5 S 20 32 11 17 1008.7 - 0.0
20/04:00pm 37.7 31.8 -2.2 8 19.8 S 19 30 10 16 1008.5 - 0.0
20/03:30pm 38.0 33.8 -3.7 7 20.2 SSW 9 19 5 10 1008.6 - 0.0
20/03:00pm 38.4 33.5 -3.4 7 20.5 SSW 13 32 7 17 1008.8 - 0.0
20/02:30pm 39.0 33.8 -3.0 7 20.7 SSW 15 26 8 14 1009.1 - 0.0
20/02:00pm 38.1 33.9 -3.7 7 20.3 S 9 17 5 9 1009.3 - 0.0
20/01:30pm 39.2 34.0 -2.9 7 20.8 SW 15 28 8 15 1009.5 - 0.0
20/01:00pm 37.5 33.5 -2.3 8 19.7 SSE 9 19 5 10 1009.9 - 0.0
20/12:30pm 38.4 34.3 -3.4 7 20.4 WNW 9 17 5 9 1010.1 - 0.0
20/12:00pm 38.2 33.1 -1.8 8 20.0 SSW 15 26 8 14 1010.4 - 0.0
20/11:30am 37.9 33.6 -2.0 8 19.9 ESE 11 17 6 9 1010.7 - 0.0
20/11:00am 37.8 33.1 -2.1 8 19.8 SSW 13 24 7 13 1011.3 - 0.0
20/10:30am 37.6 33.1 -0.6 9 19.4 SE 13 20 7 11 1011.7 - 0.0
20/10:00am 35.7 31.2 -0.6 10 18.2 S 13 19 7 10 1012.0 - 0.0
20/09:30am 35.0 31.5 1.4 12 17.3 SW 9 13 5 7 1012.1 - 0.0
20/09:00am 34.6 31.8 3.2 14 16.6 S 7 15 4 8 1012.0 - 0.0
20/08:30am 33.5 30.5 4.2 16 15.7 SW 9 15 5 8 1011.9 - 0.0
20/08:00am 33.7 30.0 4.4 16 15.8 SSW 13 20 7 11 1011.7 - 0.0
20/07:30am 33.9 29.1 4.6 16 15.8 SSW 19 28 10 15 1011.3 - 0.0
20/07:00am 32.7 26.9 4.5 17 15.1 SSW 24 33 13 18 1010.8 - 0.0
20/06:30am 32.2 27.3 4.9 18 14.7 SSW 20 35 11 19 1010.6 - 0.0
20/06:00am 31.5 28.1 5.8 20 14.0 SW 13 20 7 11 1010.4 - 0.0
20/05:30am 31.1 26.3 5.5 20 13.8 SW 20 32 11 17 1010.0 - 0.0
20/05:00am 31.6 25.6 5.2 19 14.2 SW 26 33 14 18 1009.5 - 0.0
20/04:30am 31.5 26.5 6.5 21 13.7 SW 22 28 12 15 1009.1 - 0.0
20/04:00am 31.3 28.2 8.9 25 12.8 SW 15 28 8 15 1009.1 - 0.0
20/03:30am 29.1 26.2 8.2 27 11.7 WNW 13 17 7 9 1009.2 - 0.0
20/03:00am 29.5 26.2 8.0 26 12.0 WNW 15 19 8 10 1009.1 - 0.0
20/02:30am 29.6 26.9 7.5 25 12.2 WNW 11 17 6 9 1009.2 - 0.0
20/02:00am 29.7 25.9 7.6 25 12.3 WNW 17 24 9 13 1009.1 - 0.0
20/01:30am 29.9 25.1 7.2 24 12.5 WNW 22 30 12 16 1009.3 - 0.0
20/01:00am 29.8 26.0 5.8 22 12.9 NW 15 20 8 11 1009.3 - 0.0
20/12:30am 30.2 26.0 5.5 21 13.3 NW 17 20 9 11 1009.8 - 0.0
20/12:00am 30.7 26.2 4.4 19 13.9 NW 17 20 9 11 1010.1 - 0.0
 
Date/Time
WST
Temp
°C
App
Temp
°C
Dew
Point
°C
Rel
Hum
%
Delta-T
°C
Wind Press
QNH
hPa
Press
MSL
hPa
Rain since
9am
mm
Dir  Spd
km/h
Gust
km/h
Spd
kts
Gust
kts
19/11:30pm 31.8 27.7 4.6 18 14.5 WNW 15 20 8 11 1010.3 - 0.0
19/11:00pm 32.7 27.3 4.5 17 15.1 WNW 22 32 12 17 1010.6 - 0.0
19/10:30pm 33.2 28.3 4.0 16 15.5 WNW 19 26 10 14 1010.8 - 0.0
19/10:00pm 33.7 28.9 2.5 14 16.3 WNW 17 22 9 12 1010.8 - 0.0
19/09:30pm 34.2 28.9 1.9 13 16.7 WNW 19 26 10 14 1010.4 - 0.0
19/09:00pm 34.5 29.4 1.0 12 17.1 WNW 17 26 9 14 1009.9 - 0.0
19/08:30pm 35.0 28.5 0.2 11 17.6 WNW 24 33 13 18 1010.0 - 0.0
19/08:00pm 34.9 29.5 1.3 12 17.3 WNW 19 26 10 14 1010.0 - 0.0
19/07:30pm 35.1 30.3 0.2 11 17.7 NW 15 24 8 13 1009.5 - 0.0
19/07:00pm 35.7 28.7 1.9 12 17.7 NW 28 43 15 23 1009.1 - 0.0
19/06:42pm 36.3 28.6 2.4 12 17.9 NW 32 54 17 29 1008.9 - 0.0
19/06:30pm 37.0 29.9 -1.1 9 19.1 NNW 26 41 14 22 1008.7 - 0.0
19/06:00pm 37.7 31.7 0.9 10 19.2 NNW 22 30 12 16 1008.2 - 0.0
19/05:30pm 38.3 31.6 1.3 10 19.4 NW 26 41 14 22 1007.8 - 0.0
19/05:00pm 39.1 33.4 0.5 9 20.2 NW 20 39 11 21 1007.3 - 0.0
19/04:30pm 39.8 34.0 -4.5 6 21.5 N 17 26 9 14 1006.9 - 0.0
19/04:00pm 40.1 34.6 -2.2 7 21.3 NW 17 32 9 17 1007.0 - 0.0
19/03:30pm 39.6 33.7 -2.6 7 21.0 S 19 26 10 14 1007.0 - 0.0
19/03:09pm 39.5 33.7 -4.7 6 21.3 NNW 17 48 9 26 1007.2 - 0.0
19/03:00pm 39.5 33.1 -4.7 6 21.4 ENE 20 35 11 19 1007.3 - 0.0
19/02:30pm 39.0 31.7 -3.0 7 20.7 NNE 26 44 14 24 1007.2 - 0.0
19/02:00pm 40.6 34.5 -3.9 6 21.9 NW 19 33 10 18 1006.9 - 0.0
19/01:30pm 41.2 34.6 -3.5 6 22.2 WNW 22 41 12 22 1007.2 - 0.0
19/01:00pm 41.6 35.4 -3.2 6 22.5 NNW 20 32 11 17 1007.7 - 0.0
19/12:30pm 41.6 35.0 -3.2 6 22.4 WNW 22 39 12 21 1008.0 - 0.0
19/12:00pm 42.0 36.5 -5.4 5 23.0 W 15 26 8 14 1008.6 - 0.0
19/11:30am 40.6 36.3 -1.9 7 21.5 NW 11 20 6 11 1008.9 - 0.0
19/11:00am 40.1 35.6 -0.4 8 21.0 NNW 13 26 7 14 1009.6 - 0.0
19/10:30am 39.0 35.0 0.4 9 20.1 NNW 11 20 6 11 1010.1 - 0.0
19/10:00am 38.9 34.0 1.8 10 19.7 N 17 24 9 13 1010.5 - 0.0
19/09:30am 37.8 34.1 2.3 11 18.9 WNW 11 19 6 10 1010.9 - 0.0
19/09:00am 36.6 32.6 2.6 12 18.1 NNW 13 20 7 11 1011.0 - 0.0
19/08:30am 35.1 30.7 2.6 13 17.1 NW 15 20 8 11 1011.1 - 0.0
19/08:00am 33.5 29.2 1.3 13 16.5 NW 13 17 7 9 1011.1 - 0.0
19/07:30am 31.7 29.3 -0.1 13 15.7 NW 2 15 1 8 1010.9 - 0.0
19/07:00am 29.6 26.2 -0.7 14 14.6 NE 7 9 4 5 1010.8 - 0.0
19/06:30am 28.9 25.5 -0.3 15 14.1 NE 7 9 4 5 1010.5 - 0.0
19/06:00am 32.0 27.5 2.1 15 15.3 SW 15 24 8 13 1010.0 - 0.0
19/05:30am 32.2 26.8 2.3 15 15.4 SW 20 28 11 15 1009.6 - 0.0
19/05:00am 30.8 25.5 2.1 16 14.6 SW 19 26 10 14 1009.7 - 0.0
19/04:53am 30.9 26.2 3.0 17 14.4 SW 17 26 9 14 1009.8 - 0.0
19/04:30am 25.8 21.0 -2.8 15 12.9 WSW 13 17 7 9 1009.9 - 0.0
19/04:00am 26.7 22.0 -2.1 15 13.3 WSW 13 17 7 9 1010.0 - 0.0
19/03:30am 24.7 22.1 -4.6 14 12.6 CALM 0 6 0 3 1010.1 - 0.0
19/03:00am 25.4 21.1 -5.0 13 13.1 E 9 13 5 7 1009.9 - 0.0
19/02:30am 25.3 21.5 -5.1 13 13.1 WSW 6 9 3 5 1009.8 - 0.0
19/02:00am 26.3 22.9 -5.3 12 13.7 S 4 11 2 6 1010.0 - 0.0
19/01:30am 26.4 20.3 -7.6 10 14.1 ENE 17 26 9 14 1010.2 - 0.0
19/01:24am 28.0 22.3 -7.8 9 15.0 W 15 22 8 12 1010.2 - 0.0
19/01:00am 33.2 27.6 -2.5 10 17.1 W 17 24 9 13 1010.0 - 0.0
19/12:30am 29.2 24.8 -5.5 10 15.3 NW 9 17 5 9 1010.4 - 0.0
19/12:00am 27.6 24.8 -6.7 10 14.6 CALM 0 6 0 3 1010.8 - 0.0
 
Date/Time
WST
Temp
°C
App
Temp
°C
Dew
Point
°C
Rel
Hum
%
Delta-T
°C
Wind Press
QNH
hPa
Press
MSL
hPa
Rain since
9am
mm
Dir  Spd
km/h
Gust
km/h
Spd
kts
Gust
kts
18/11:30pm 28.6 23.7 -7.3 9 15.3 NNE 11 13 6 7 1011.2 - 0.0
18/11:00pm 32.4 28.0 -6.0 8 17.3 WSW 9 13 5 7 1011.4 - 0.0
18/10:30pm 33.6 27.6 -6.9 7 18.1 WSW 17 26 9 14 1011.7 - 0.0
18/10:00pm 34.2 29.0 -6.5 7 18.4 WNW 13 19 7 10 1011.7 - 0.0
18/09:30pm 34.8 27.9 -6.0 7 18.7 WNW 22 30 12 16 1011.7 - 0.0
18/09:00pm 33.5 27.5 -7.0 7 18.1 WNW 17 24 9 13 1011.5 - 0.0
18/08:30pm 30.8 26.9 -10.9 6 17.0 S 4 9 2 5 1011.1 - 0.0
18/08:00pm 31.9 28.8 -10.1 6 17.6 CALM 0 0 0 0 1011.0 - 0.0
18/07:30pm 32.6 29.2 -9.6 6 17.9 ESE 2 7 1 4 1010.7 - 0.0

Other formats

Comma delimited format used in spreadsheet applications
http://www.bom.gov.au/fwo/IDW60801/IDW60801.94330.axf

JavaScript Object Notation format (JSON) in row-major order
http://www.bom.gov.au/fwo/IDW60801/IDW60801.94330.json

Data quality

Most of these data are generated automatically and are frequently updated. Quality checks on data are not normally performed. It is possible for incorrect values to appear. Refer to information at About Latest Weather Observations and please check the disclaimer before using these data.